Time;durP1;ratioP1;P1;durP2;ratioP2;P2;SDS_P1;SDS_P2;PMS_P1;PMS_P2;Temp;Humidity;BMP_temperature;BMP_pressure;BME280_temperature;BME280_humidity;BME280_pressure;Samples;Min_cycle;Max_cycle;Signal;HPM_P1;HPM_P2
2023/02/16 00:00:47;;;;;;;0.40;0.40;;;;;;;9.50;100.00;100583.16;4982904;28;20472;-78
2023/02/16 00:03:23;;;;;;;0.40;0.40;;;;;;;9.51;100.00;100582.16;4999655;28;20088;-77
2023/02/16 00:05:52;;;;;;;0.40;0.40;;;;;;;9.58;100.00;100580.44;4998423;28;20484;-77
2023/02/16 00:08:18;;;;;;;0.50;0.50;;;;;;;9.56;100.00;100579.81;4999309;28;20033;-77
2023/02/16 00:13:43;;;;;;;0.40;0.40;;;;;;;9.61;100.00;100580.13;5015480;28;20034;-76
2023/02/16 00:13:47;;;;;;;0.40;0.40;;;;;;;9.65;100.00;100590.31;5001836;28;20128;-77
2023/02/16 00:16:17;;;;;;;0.40;0.40;;;;;;;9.70;100.00;100589.78;5015505;28;20128;-77
2023/02/16 00:18:43;;;;;;;0.40;0.40;;;;;;;9.73;100.00;100588.63;4998528;28;20038;-78
2023/02/16 00:21:09;;;;;;;0.40;0.40;;;;;;;9.76;100.00;100597.16;5015126;28;20526;-77
2023/02/16 00:23:34;;;;;;;0.40;0.40;;;;;;;9.76;100.00;100593.63;4998233;28;20038;-77
2023/02/16 00:26:04;;;;;;;0.40;0.40;;;;;;;9.73;100.00;100575.19;5015917;28;20045;-77
2023/02/16 00:28:32;;;;;;;0.40;0.40;;;;;;;9.87;100.00;100606.66;4998636;28;20486;-77
2023/02/16 00:31:00;;;;;;;0.40;0.40;;;;;;;9.86;100.00;100611.22;5014632;28;20026;-77
2023/02/16 00:33:28;;;;;;;0.60;0.60;;;;;;;9.90;100.00;100600.97;4998492;28;20034;-77
2023/02/16 00:36:00;;;;;;;0.40;0.40;;;;;;;9.93;100.00;100613.22;4998582;28;20040;-78
2023/02/16 00:38:26;;;;;;;0.40;0.40;;;;;;;9.91;100.00;100608.00;4998611;28;20038;-76
2023/02/16 00:40:51;;;;;;;0.40;0.40;;;;;;;9.83;100.00;100595.44;5014438;28;20076;-78
2023/02/16 00:43:26;;;;;;;0.43;0.43;;;;;;;9.86;100.00;100610.38;4997590;28;20045;-77
2023/02/16 00:45:51;;;;;;;0.57;0.57;;;;;;;9.92;100.00;100606.97;4998444;28;20030;-76
2023/02/16 00:48:17;;;;;;;0.40;0.40;;;;;;;9.88;100.00;100609.19;5014453;28;20392;-78
2023/02/16 00:50:43;;;;;;;0.40;0.40;;;;;;;9.89;100.00;100610.84;4997344;28;20464;-79
2023/02/16 00:53:11;;;;;;;0.40;0.40;;;;;;;9.86;100.00;100613.88;4997949;28;20034;-77
2023/02/16 00:55:41;;;;;;;0.40;0.40;;;;;;;9.90;100.00;100615.22;4997067;28;20052;-77
2023/02/16 00:58:06;;;;;;;0.40;0.40;;;;;;;9.81;100.00;100597.47;4998152;28;20037;-77
2023/02/16 01:00:54;;;;;;;0.40;0.40;;;;;;;9.99;100.00;100621.38;5015571;28;20153;-77
2023/02/16 01:03:23;;;;;;;0.40;0.40;;;;;;;9.95;100.00;100613.84;4997244;28;20093;-77
2023/02/16 01:11:06;;;;;;;0.38;0.38;;;;;;;9.92;100.00;100620.41;4998026;28;20476;-77
2023/02/16 01:11:22;;;;;;;0.30;0.30;;;;;;;9.93;100.00;100638.22;5013240;28;20109;-77
2023/02/16 01:13:49;;;;;;;0.40;0.40;;;;;;;9.97;100.00;100628.78;4998168;28;20471;-77
2023/02/16 01:16:44;;;;;;;0.40;0.40;;;;;;;9.99;100.00;100626.75;5014213;28;20038;-77
2023/02/16 01:19:11;;;;;;;0.40;0.40;;;;;;;10.00;100.00;100627.59;5004381;28;20042;-79
2023/02/16 01:21:40;;;;;;;0.30;0.30;;;;;;;10.07;100.00;100634.78;5014061;28;20083;-77
2023/02/16 01:24:06;;;;;;;0.40;0.40;;;;;;;10.11;100.00;100635.28;5012996;28;20034;-78
2023/02/16 01:26:37;;;;;;;0.40;0.40;;;;;;;10.11;100.00;100633.44;5013761;28;20124;-77
2023/02/16 01:29:03;;;;;;;0.40;0.40;;;;;;;10.10;100.00;100623.69;4997527;28;20049;-77
2023/02/16 01:31:31;;;;;;;0.40;0.40;;;;;;;10.16;100.00;100627.53;5012986;28;20080;-78
2023/02/16 01:33:59;;;;;;;0.40;0.40;;;;;;;10.19;100.00;100620.94;5013086;28;20113;-77
2023/02/16 01:36:35;;;;;;;0.40;0.40;;;;;;;10.10;100.00;100609.41;5013191;28;20100;-77
2023/02/16 01:39:01;;;;;;;0.40;0.40;;;;;;;10.17;100.00;100634.56;4997056;28;20524;-76
2023/02/16 01:42:01;;;;;;;0.40;0.40;;;;;;;10.14;100.00;100613.44;4996376;28;20132;-77
2023/02/16 01:44:45;;;;;;;0.40;0.40;;;;;;;10.13;100.00;100609.91;5013654;28;20041;-77
2023/02/16 01:47:36;;;;;;;0.40;0.40;;;;;;;10.12;100.00;100605.53;4997889;28;20125;-77
2023/02/16 01:50:26;;;;;;;0.40;0.40;;;;;;;10.13;100.00;100601.84;4992007;28;20048;-76
2023/02/16 01:53:01;;;;;;;0.40;0.40;;;;;;;10.02;100.00;100587.97;4996859;28;20037;-78
2023/02/16 01:55:33;;;;;;;0.40;0.40;;;;;;;10.09;100.00;100599.69;4980735;28;20034;-77
2023/02/16 01:58:12;;;;;;;0.40;0.40;;;;;;;10.08;100.00;100598.84;4997658;28;20484;-76
2023/02/16 02:00:53;;;;;;;0.40;0.40;;;;;;;10.15;100.00;100609.72;5012597;28;20108;-76
2023/02/16 02:06:35;;;;;;;0.40;0.40;;;;;;;10.11;100.00;100625.38;5013028;28;20168;-78
2023/02/16 02:09:06;;;;;;;0.40;0.40;;;;;;;10.16;100.00;100629.34;4996731;28;20046;-77
2023/02/16 02:11:35;;;;;;;0.40;0.40;;;;;;;10.16;100.00;100637.41;5013452;28;20038;-76
2023/02/16 02:14:20;;;;;;;0.40;0.40;;;;;;;10.10;100.00;100617.47;5012243;28;20144;-77
2023/02/16 02:17:02;;;;;;;0.40;0.40;;;;;;;10.13;100.00;100636.78;4997290;28;20045;-77
2023/02/16 02:19:31;;;;;;;0.40;0.40;;;;;;;10.17;100.00;100639.94;4997433;28;20034;-77
2023/02/16 02:25:23;;;;;;;0.40;0.40;;;;;;;10.14;100.00;100651.06;5003292;28;20045;-77
2023/02/16 02:28:19;;;;;;;0.40;0.40;;;;;;;10.19;100.00;100653.19;4995977;28;20038;-77
2023/02/16 02:30:48;;;;;;;0.40;0.40;;;;;;;10.20;100.00;100647.66;4993971;28;20038;-77
2023/02/16 02:33:26;;;;;;;0.40;0.40;;;;;;;10.22;100.00;100655.53;5012540;28;20514;-77
2023/02/16 02:36:30;;;;;;;0.40;0.40;;;;;;;10.13;100.00;100646.66;5013518;28;20080;-77
2023/02/16 02:39:20;;;;;;;0.40;0.40;;;;;;;10.16;100.00;100656.22;5013668;28;20030;-79
2023/02/16 02:42:06;;;;;;;0.40;0.40;;;;;;;10.11;100.00;100662.97;4996486;28;20026;-78
2023/02/16 02:44:47;;;;;;;0.40;0.40;;;;;;;10.09;100.00;100656.94;5012924;28;20031;-77
2023/02/16 02:47:17;;;;;;;0.40;0.40;;;;;;;9.99;100.00;100645.56;4995956;28;20104;-78
2023/02/16 02:49:53;;;;;;;0.40;0.40;;;;;;;10.02;100.00;100669.38;5012302;28;20030;-77
2023/02/16 02:52:23;;;;;;;0.40;0.40;;;;;;;10.02;100.00;100680.13;4996710;28;20121;-78
2023/02/16 03:00:42;;;;;;;0.40;0.40;;;;;;;9.96;100.00;100659.34;5011985;28;20062;-77
2023/02/16 03:03:20;;;;;;;0.40;0.40;;;;;;;9.95;100.00;100648.75;5012335;28;20038;-77
2023/02/16 03:06:08;;;;;;;0.40;0.40;;;;;;;9.67;100.00;100611.63;5012301;28;20573;-77
2023/02/16 03:08:37;;;;;;;0.40;0.40;;;;;;;9.92;100.00;100647.25;4995976;28;20034;-77
2023/02/16 03:14:33;;;;;;;0.50;0.50;;;;;;;9.89;100.00;100666.41;5012006;28;20088;-77
2023/02/16 03:31:19;;;;;;;0.40;0.40;;;;;;;9.83;100.00;100667.13;4998398;28;20476;-76
2023/02/16 03:33:46;;;;;;;0.40;0.40;;;;;;;9.83;100.00;100677.88;4996227;28;20095;-77
2023/02/16 03:36:11;;;;;;;0.40;0.40;;;;;;;9.78;100.00;100677.53;4979252;28;20099;-79
2023/02/16 03:38:40;;;;;;;0.40;0.40;;;;;;;9.77;100.00;100676.72;4996223;28;20419;-78
2023/02/16 03:41:06;;;;;;;0.60;0.60;;;;;;;9.72;100.00;100697.03;5011968;28;20042;-78
2023/02/16 03:43:32;;;;;;;0.40;0.40;;;;;;;9.71;100.00;100706.06;5011677;28;20439;-77
2023/02/16 03:45:57;;;;;;;0.40;0.40;;;;;;;9.68;100.00;100710.81;4995887;28;20037;-77
2023/02/16 03:48:23;;;;;;;0.40;0.40;;;;;;;9.64;100.00;100714.00;4979059;28;20061;-76
2023/02/16 03:50:56;;;;;;;0.40;0.40;;;;;;;9.61;100.00;100731.28;4995982;28;20029;-79
2023/02/16 03:53:26;;;;;;;0.50;0.50;;;;;;;9.57;100.00;100732.63;4995683;28;20029;-78
2023/02/16 03:55:52;;;;;;;0.40;0.40;;;;;;;9.56;100.00;100740.84;4995395;28;20038;-78
2023/02/16 03:58:24;;;;;;;0.40;0.40;;;;;;;9.50;100.00;100747.75;5012895;28;20034;-77
2023/02/16 04:00:53;;;;;;;0.40;0.40;;;;;;;9.48;100.00;100756.97;5014818;28;20032;-77
2023/02/16 04:03:21;;;;;;;0.40;0.40;;;;;;;9.47;100.00;100753.41;5015707;28;20030;-78
2023/02/16 04:05:50;;;;;;;0.40;0.40;;;;;;;9.41;100.00;100751.41;4999233;28;20030;-77
2023/02/16 04:08:20;;;;;;;0.40;0.40;;;;;;;9.25;100.00;100741.53;4999917;28;20042;-77
2023/02/16 04:10:46;;;;;;;0.40;0.40;;;;;;;9.22;100.00;100764.16;5015431;28;20404;-77
2023/02/16 04:13:12;;;;;;;0.40;0.40;;;;;;;9.13;100.00;100762.50;5014620;28;20033;-77
2023/02/16 04:15:41;;;;;;;0.40;0.40;;;;;;;9.05;100.00;100759.81;4999140;28;20041;-79
2023/02/16 04:18:06;;;;;;;0.40;0.40;;;;;;;8.92;100.00;100759.47;4982973;28;20038;-79
2023/02/16 04:20:35;;;;;;;0.40;0.40;;;;;;;8.84;100.00;100754.91;5014428;28;20431;-79
2023/02/16 04:23:04;;;;;;;0.40;0.40;;;;;;;8.79;100.00;100763.44;5015101;28;20038;-79
2023/02/16 04:25:30;;;;;;;0.40;0.40;;;;;;;8.75;100.00;100762.06;5011989;28;20125;-79
2023/02/16 04:27:56;;;;;;;0.40;0.40;;;;;;;8.72;100.00;100751.69;5014067;28;20105;-79
2023/02/16 04:30:24;;;;;;;0.40;0.40;;;;;;;8.63;100.00;100741.97;5015029;28;20030;-79
2023/02/16 04:32:57;;;;;;;0.40;0.40;;;;;;;8.64;100.00;100753.50;4998404;28;20076;-80
2023/02/16 04:35:25;;;;;;;0.40;0.40;;;;;;;8.62;100.00;100766.22;4982935;28;20391;-78
2023/02/16 04:37:51;;;;;;;0.40;0.40;;;;;;;8.58;100.00;100766.56;4999075;28;20038;-78
2023/02/16 04:40:20;;;;;;;0.40;0.40;;;;;;;8.53;100.00;100765.38;4998004;28;20096;-78
2023/02/16 04:42:49;;;;;;;0.40;0.40;;;;;;;8.52;100.00;100759.19;4982191;28;20065;-78
2023/02/16 04:45:15;;;;;;;0.40;0.40;;;;;;;8.46;100.00;100756.31;4998498;28;20423;-79
2023/02/16 04:47:41;;;;;;;0.40;0.40;;;;;;;8.44;100.00;100759.16;5013703;28;20476;-78
2023/02/16 04:50:07;;;;;;;0.40;0.40;;;;;;;8.46;100.00;100769.69;4998506;28;20125;-77
2023/02/16 04:52:33;;;;;;;0.40;0.40;;;;;;;8.44;100.00;100774.38;5013682;28;20030;-77
2023/02/16 04:55:04;;;;;;;0.40;0.40;;;;;;;8.41;100.00;100790.78;4998645;28;20041;-78
2023/02/16 04:57:30;;;;;;;0.40;0.40;;;;;;;8.36;100.00;100788.53;5014571;28;20061;-79
2023/02/16 05:00:01;;;;;;;0.40;0.40;;;;;;;8.35;100.00;100789.56;4981539;28;20077;-78
2023/02/16 05:02:26;;;;;;;0.40;0.40;;;;;;;8.35;100.00;100801.09;4998380;28;20038;-79
2023/02/16 05:04:55;;;;;;;0.47;0.47;;;;;;;8.34;100.00;100807.47;5014015;28;20030;-78
2023/02/16 05:07:26;;;;;;;0.40;0.40;;;;;;;8.31;100.00;100807.78;5013753;28;20065;-77
2023/02/16 05:09:54;;;;;;;0.40;0.40;;;;;;;8.33;100.00;100813.81;4998289;28;20033;-77
2023/02/16 05:15:12;;;;;;;0.40;0.40;;;;;;;8.28;100.00;100818.84;5014081;28;20037;-77
2023/02/16 05:17:40;;;;;;;0.50;0.50;;;;;;;8.26;100.00;100809.28;4997546;28;20042;-78
2023/02/16 05:20:09;;;;;;;0.40;0.40;;;;;;;8.24;100.00;100806.75;4997258;28;20061;-78
2023/02/16 05:22:37;;;;;;;0.40;0.40;;;;;;;8.24;100.00;100811.28;5013944;28;20033;-77
2023/02/16 05:25:04;;;;;;;0.40;0.40;;;;;;;8.24;100.00;100816.63;5014377;28;20030;-78
2023/02/16 05:27:30;;;;;;;0.40;0.40;;;;;;;8.21;100.00;100820.47;4980947;28;20034;-78
2023/02/16 05:29:57;;;;;;;0.40;0.40;;;;;;;8.20;100.00;100831.31;5013960;28;20037;-78
2023/02/16 05:32:23;;;;;;;0.40;0.40;;;;;;;8.22;100.00;100840.88;4997864;28;20041;-77
2023/02/16 05:34:48;;;;;;;0.40;0.40;;;;;;;8.18;100.00;100841.34;4996620;28;20080;-78
2023/02/16 05:37:16;;;;;;;0.50;0.50;;;;;;;8.14;100.00;100830.94;5013631;28;20445;-77
2023/02/16 05:39:42;;;;;;;0.47;0.47;;;;;;;8.16;100.00;100857.59;4996810;28;20034;-78
2023/02/16 05:42:08;;;;;;;0.40;0.40;;;;;;;8.12;100.00;100856.22;5012936;28;20510;-77
2023/02/16 05:44:38;;;;;;;0.40;0.40;;;;;;;7.99;100.00;100862.00;4997582;28;20380;-77
2023/02/16 05:47:10;;;;;;;0.40;0.40;;;;;;;7.87;100.00;100874.78;4996647;28;20054;-78
2023/02/16 05:49:40;;;;;;;0.50;0.50;;;;;;;7.75;100.00;100875.19;5013850;28;20041;-78
2023/02/16 05:52:09;;;;;;;0.40;0.40;;;;;;;7.65;100.00;100878.78;4980410;28;20038;-78
2023/02/16 05:54:37;;;;;;;0.40;0.40;;;;;;;7.63;100.00;100887.97;5013687;28;20082;-79
2023/02/16 05:57:03;;;;;;;0.40;0.40;;;;;;;7.57;100.00;100899.28;5014671;28;20115;-78
2023/02/16 05:59:28;;;;;;;0.50;0.50;;;;;;;7.51;100.00;100903.41;5012680;28;20476;-78
2023/02/16 06:01:57;;;;;;;0.40;0.40;;;;;;;7.49;100.00;100914.28;5014453;28;20057;-78
2023/02/16 06:04:24;;;;;;;0.40;0.40;;;;;;;7.57;100.00;100916.19;4996490;28;20065;-79
2023/02/16 06:06:50;;;;;;;0.40;0.40;;;;;;;7.50;100.00;100917.78;5012121;28;20038;-78
2023/02/16 06:09:19;;;;;;;0.40;0.40;;;;;;;7.46;100.00;100919.06;5013103;28;20117;-78
2023/02/16 06:11:45;;;;;;;0.40;0.40;;;;;;;7.54;100.00;100940.59;5013494;28;20053;-80
2023/02/16 06:14:19;;;;;;;0.40;0.40;;;;;;;7.56;100.00;100925.19;4996652;28;20376;-79
2023/02/16 06:16:52;;;;;;;0.40;0.40;;;;;;;7.51;100.00;100915.94;4997027;28;20033;-78
2023/02/16 06:19:18;;;;;;;0.40;0.40;;;;;;;7.52;100.00;100912.28;5011912;28;20080;-78
2023/02/16 06:21:47;;;;;;;0.40;0.40;;;;;;;7.57;100.00;100932.25;4996478;28;20058;-78
2023/02/16 06:24:13;;;;;;;0.40;0.40;;;;;;;7.57;100.00;100936.72;4996801;28;20120;-79
2023/02/16 06:26:45;;;;;;;0.40;0.40;;;;;;;7.59;100.00;100934.75;5011901;28;20030;-78
2023/02/16 06:29:11;;;;;;;0.40;0.40;;;;;;;7.49;100.00;100916.13;5013771;28;20129;-78
2023/02/16 06:31:59;;;;;;;0.40;0.40;;;;;;;7.60;100.00;100928.44;4996061;28;20524;-79
2023/02/16 06:34:25;;;;;;;0.50;0.50;;;;;;;7.61;100.00;100930.94;5012172;28;20057;-78
2023/02/16 06:36:54;;;;;;;0.40;0.40;;;;;;;7.62;100.00;100926.41;5012451;28;20034;-79
2023/02/16 06:39:19;;;;;;;0.40;0.40;;;;;;;7.59;100.00;100932.06;4995608;28;20034;-78
2023/02/16 06:41:48;;;;;;;0.40;0.40;;;;;;;7.61;100.00;100932.78;4996146;28;20076;-78
2023/02/16 06:44:15;;;;;;;0.40;0.40;;;;;;;7.58;100.00;100930.41;4995728;28;20042;-78
2023/02/16 06:46:42;;;;;;;0.40;0.40;;;;;;;7.57;100.00;100918.88;4996523;28;20030;-79
2023/02/16 06:49:12;;;;;;;0.40;0.40;;;;;;;7.59;100.00;100914.19;5011426;28;20388;-79
2023/02/16 06:51:43;;;;;;;0.40;0.40;;;;;;;7.54;100.00;100920.97;4996493;28;20443;-78
2023/02/16 06:54:09;;;;;;;0.40;0.40;;;;;;;7.54;100.00;100927.19;5013395;28;20033;-78
2023/02/16 06:56:41;;;;;;;0.47;0.47;;;;;;;7.57;100.00;100926.03;5028106;28;20092;-79
2023/02/16 06:59:13;;;;;;;0.40;0.40;;;;;;;7.57;100.00;100942.94;5012316;28;20038;-78
2023/02/16 07:01:39;;;;;;;0.40;0.40;;;;;;;7.63;100.00;100938.81;5012438;28;20034;-78
2023/02/16 07:04:05;;;;;;;0.40;0.40;;;;;;;7.65;100.00;100940.34;4995360;28;20366;-79
2023/02/16 07:06:34;;;;;;;0.40;0.40;;;;;;;7.65;100.00;100934.16;5011992;28;20056;-77
2023/02/16 07:09:00;;;;;;;0.40;0.40;;;;;;;7.63;100.00;100941.50;4995964;28;20105;-79
2023/02/16 07:11:26;;;;;;;0.40;0.40;;;;;;;7.64;100.00;100951.19;5011576;28;20037;-77
2023/02/16 07:13:52;;;;;;;0.40;0.40;;;;;;;7.59;100.00;100951.66;5012196;28;20108;-79
2023/02/16 07:16:22;;;;;;;0.50;0.50;;;;;;;7.57;100.00;100966.16;5011359;28;20034;-80
2023/02/16 07:18:48;;;;;;;0.43;0.43;;;;;;;7.49;100.00;100962.44;4980074;28;20045;-79
2023/02/16 07:21:14;;;;;;;0.40;0.40;;;;;;;7.54;100.00;100974.50;4995751;28;20092;-80
2023/02/16 07:23:40;;;;;;;0.40;0.40;;;;;;;7.55;100.00;100982.38;5011473;28;20037;-79
2023/02/16 07:26:05;;;;;;;0.40;0.40;;;;;;;7.58;100.00;100983.94;5011980;28;20030;-79
2023/02/16 07:28:31;;;;;;;0.40;0.40;;;;;;;7.60;100.00;100984.63;4995738;28;20041;-81
2023/02/16 07:30:57;;;;;;;0.40;0.40;;;;;;;7.60;100.00;100995.31;5011988;28;20022;-79
2023/02/16 07:33:25;;;;;;;0.40;0.40;;;;;;;7.60;100.00;100992.66;5013221;28;20388;-81
2023/02/16 07:35:50;;;;;;;0.40;0.40;;;;;;;7.52;100.00;100989.88;4998398;28;20048;-79
2023/02/16 07:38:16;;;;;;;0.40;0.40;;;;;;;7.46;100.00;100988.63;5015276;28;20033;-79
2023/02/16 07:40:42;;;;;;;0.40;0.40;;;;;;;7.49;100.00;100994.53;5015640;28;20030;-80
2023/02/16 07:43:10;;;;;;;0.50;0.50;;;;;;;7.54;100.00;101017.31;5014222;28;20042;-80
2023/02/16 07:45:36;;;;;;;0.40;0.40;;;;;;;7.43;100.00;101000.47;5015439;28;20428;-80
2023/02/16 07:48:02;;;;;;;0.40;0.40;;;;;;;7.57;100.00;101015.19;5015261;28;20030;-79
2023/02/16 07:50:27;;;;;;;0.40;0.40;;;;;;;7.41;100.00;100981.06;4998551;28;20042;-78
2023/02/16 07:52:53;;;;;;;0.40;0.40;;;;;;;7.55;100.00;101003.81;5015274;28;20072;-79
2023/02/16 07:55:21;;;;;;;0.40;0.40;;;;;;;7.47;100.00;101001.88;4998442;28;20577;-79
2023/02/16 07:57:53;;;;;;;0.40;0.40;;;;;;;7.51;100.00;101015.78;5015483;28;20026;-78
2023/02/16 08:00:19;;;;;;;0.40;0.40;;;;;;;7.53;100.00;101021.81;5015480;28;20029;-79
2023/02/16 08:02:45;;;;;;;0.47;0.47;;;;;;;7.43;100.00;101016.53;4998313;28;20048;-79
2023/02/16 08:05:13;;;;;;;0.40;0.40;;;;;;;7.49;100.00;101028.50;5015109;28;20387;-79
2023/02/16 08:07:41;;;;;;;0.40;0.40;;;;;;;7.50;100.00;101046.22;5015006;28;20064;-78
2023/02/16 08:10:08;;;;;;;0.47;0.47;;;;;;;7.51;100.00;101058.59;5013832;28;20037;-80
2023/02/16 08:12:34;;;;;;;0.40;0.40;;;;;;;7.58;100.00;101051.66;4982302;28;20050;-80
2023/02/16 08:14:59;;;;;;;0.40;0.40;;;;;;;7.62;100.00;101063.78;5015126;28;20472;-81
2023/02/16 08:17:25;;;;;;;0.40;0.40;;;;;;;7.66;100.00;101056.28;4998690;28;20045;-80
2023/02/16 08:19:51;;;;;;;0.40;0.40;;;;;;;7.71;100.00;101060.19;4998642;28;20088;-81
2023/02/16 08:22:17;;;;;;;0.40;0.40;;;;;;;7.74;100.00;101067.06;5014636;28;20361;-81
2023/02/16 08:24:43;;;;;;;0.40;0.40;;;;;;;7.66;100.00;101053.59;5014949;28;20034;-78
2023/02/16 08:27:08;;;;;;;0.47;0.47;;;;;;;7.79;100.00;101067.47;5014626;28;20499;-81
2023/02/16 08:29:34;;;;;;;0.40;0.40;;;;;;;7.80;100.00;101074.50;4998787;28;20046;-81
2023/02/16 08:32:06;;;;;;;0.40;0.40;;;;;;;7.80;100.00;101077.16;5014465;28;20038;-81
2023/02/16 08:34:35;;;;;;;0.50;0.50;;;;;;;7.90;100.00;101101.22;5014454;28;20037;-80
2023/02/16 08:37:04;;;;;;;0.40;0.40;;;;;;;7.95;100.00;101095.41;4998068;28;20049;-80
2023/02/16 08:39:31;;;;;;;0.50;0.50;;;;;;;7.98;100.00;101113.84;4997877;28;20045;-80
2023/02/16 08:41:59;;;;;;;0.40;0.40;;;;;;;8.03;100.00;101114.25;4981981;28;20041;-81
2023/02/16 08:44:26;;;;;;;0.40;0.40;;;;;;;8.12;100.00;101108.84;5014053;28;20083;-79
2023/02/16 08:46:54;;;;;;;0.40;0.40;;;;;;;8.14;100.00;101112.19;5014254;28;20022;-78
2023/02/16 08:49:22;;;;;;;0.50;0.50;;;;;;;8.17;100.00;101127.13;4998217;28;20037;-78
2023/02/16 08:52:01;;;;;;;0.50;0.50;;;;;;;8.10;100.00;101118.03;4998056;28;20045;-77
2023/02/16 08:54:29;;;;;;;0.40;0.40;;;;;;;8.15;100.00;101123.78;4995439;28;20124;-79
2023/02/16 08:56:56;;;;;;;0.40;0.40;;;;;;;8.22;100.00;101130.19;4997534;28;20099;-78
2023/02/16 08:59:25;;;;;;;0.40;0.40;;;;;;;8.24;100.00;101117.50;5014035;28;20029;-79
2023/02/16 09:01:51;;;;;;;0.40;0.40;;;;;;;8.31;100.00;101129.28;5013613;28;20022;-79
2023/02/16 09:04:18;;;;;;;0.40;0.40;;;;;;;8.40;100.00;101126.72;5013631;28;20059;-77
2023/02/16 09:06:45;;;;;;;0.50;0.50;;;;;;;8.50;100.00;101112.25;4996865;28;20182;-78
2023/02/16 09:09:12;;;;;;;0.50;0.50;;;;;;;8.87;100.00;101124.63;4997896;28;20041;-79
2023/02/16 09:11:38;;;;;;;0.40;0.40;;;;;;;9.05;100.00;101121.03;4981387;28;20037;-79
2023/02/16 09:14:08;;;;;;;0.40;0.40;;;;;;;9.00;100.00;101114.34;4981682;28;20040;-78
2023/02/16 09:16:35;;;;;;;0.40;0.40;;;;;;;9.05;100.00;101119.22;4997850;28;20423;-79
2023/02/16 09:19:01;;;;;;;0.40;0.40;;;;;;;9.25;100.00;101133.28;4982051;28;20466;-78
2023/02/16 09:21:32;;;;;;;0.40;0.40;;;;;;;9.34;100.00;101112.69;5013893;28;20083;-77
2023/02/16 09:24:03;;;;;;;0.40;0.40;;;;;;;9.27;100.00;101107.13;5013625;28;20026;-79
2023/02/16 09:26:32;;;;;;;0.40;0.40;;;;;;;9.14;100.00;101112.91;4997606;28;20037;-81
2023/02/16 09:28:57;;;;;;;0.40;0.40;;;;;;;9.03;100.00;101113.19;4997685;28;20046;-79
2023/02/16 09:31:28;;;;;;;0.40;0.40;;;;;;;8.91;100.00;101119.78;5030257;28;20052;-79
2023/02/16 09:33:56;;;;;;;0.40;0.40;;;;;;;8.80;100.00;101120.88;4997628;28;20044;-80
2023/02/16 09:36:22;;;;;;;0.40;0.40;;;;;;;8.62;100.00;101130.78;4997771;28;20120;-78
2023/02/16 09:38:49;;;;;;;0.40;0.40;;;;;;;8.51;100.00;101130.00;5014188;28;20113;-79
2023/02/16 09:41:40;;;;;;;0.43;0.43;;;;;;;8.55;100.00;101136.75;4981312;28;20464;-80
2023/02/16 09:44:32;;;;;;;0.40;0.40;;;;;;;8.57;100.00;101133.91;4996444;28;20428;-78
2023/02/16 09:47:02;;;;;;;0.50;0.50;;;;;;;8.32;100.00;101119.41;4995618;28;20048;-79
2023/02/16 09:49:31;;;;;;;0.40;0.40;;;;;;;8.55;100.00;101146.63;5012954;28;20105;-80
2023/02/16 09:52:29;;;;;;;0.60;0.60;;;;;;;8.69;100.00;101138.03;4981167;28;20483;-78
2023/02/16 09:54:59;;;;;;;0.50;0.50;;;;;;;8.63;100.00;101146.72;4997790;28;20030;-78
2023/02/16 09:58:15;;;;;;;0.40;0.40;;;;;;;8.62;100.00;101133.44;4995970;28;20041;-78
2023/02/16 10:00:48;;;;;;;0.40;0.40;;;;;;;8.76;100.00;101165.09;4975133;28;20516;-78
2023/02/16 10:03:36;;;;;;;0.40;0.40;;;;;;;8.69;100.00;101143.41;4981133;28;20034;-77
2023/02/16 10:06:05;;;;;;;0.50;0.50;;;;;;;8.89;100.00;101159.31;5013066;28;20691;-77
2023/02/16 10:08:44;;;;;;;0.40;0.40;;;;;;;9.06;100.00;101155.78;5013381;28;20029;-76
2023/02/16 10:14:12;;;;;;;0.50;0.50;;;;;;;9.41;100.00;101154.84;4999753;28;20116;-77
2023/02/16 10:16:43;;;;;;;0.40;0.40;;;;;;;9.37;100.00;101136.53;4996661;28;20374;-76
2023/02/16 10:19:22;;;;;;;0.40;0.40;;;;;;;9.33;100.00;101145.91;5013156;28;20029;-77
2023/02/16 10:21:51;;;;;;;0.40;0.40;;;;;;;9.35;100.00;101143.91;4997224;28;20120;-77
2023/02/16 10:24:17;;;;;;;1.25;1.15;;;;;;;9.29;100.00;101137.34;4997049;28;20034;-77
2023/02/16 10:26:53;;;;;;;0.40;0.40;;;;;;;9.32;100.00;101112.84;4996806;28;20607;-77
2023/02/16 10:29:21;;;;;;;0.50;0.50;;;;;;;9.67;100.00;101114.53;4981052;28;20113;-77
2023/02/16 10:32:04;;;;;;;0.50;0.50;;;;;;;9.77;100.00;101122.47;5012987;28;20033;-77
2023/02/16 10:34:56;;;;;;;0.40;0.40;;;;;;;9.77;100.00;101132.38;5028977;28;20037;-77
2023/02/16 10:37:42;;;;;;;0.40;0.40;;;;;;;9.91;100.00;101135.28;5004991;28;20087;-77
2023/02/16 10:40:11;;;;;;;0.50;0.50;;;;;;;10.36;100.00;101122.50;5013121;28;20042;-77
2023/02/16 10:42:45;;;;;;;0.50;0.50;;;;;;;10.25;100.00;101122.78;5029025;28;20084;-77
2023/02/16 10:45:16;;;;;;;0.50;0.50;;;;;;;10.51;100.00;101125.38;5012759;28;20025;-77
2023/02/16 10:47:44;;;;;;;0.50;0.50;;;;;;;10.65;100.00;101099.69;5012402;28;20116;-77
2023/02/16 10:50:31;;;;;;;0.40;0.40;;;;;;;10.69;100.00;101111.75;4996487;28;20030;-77
2023/02/16 10:53:06;;;;;;;0.40;0.40;;;;;;;10.36;100.00;101101.00;5012573;28;20030;-76
2023/02/16 10:55:31;;;;;;;0.40;0.40;;;;;;;10.16;100.00;101088.81;5012471;28;20033;-77
2023/02/16 10:57:59;;;;;;;0.40;0.40;;;;;;;9.81;100.00;101101.50;4995924;28;20042;-77
2023/02/16 11:00:38;;;;;;;0.50;0.50;;;;;;;9.67;100.00;101111.00;5012345;28;20041;-77
2023/02/16 11:03:06;;;;;;;0.50;0.50;;;;;;;10.27;100.00;101116.28;4995999;28;20084;-77
2023/02/16 11:05:35;;;;;;;0.50;0.50;;;;;;;11.12;100.00;101128.56;5012463;28;20029;-77
2023/02/16 11:08:01;;;;;;;0.50;0.50;;;;;;;10.85;100.00;101141.38;5013668;28;20025;-77
2023/02/16 11:10:42;;;;;;;0.50;0.50;;;;;;;10.65;100.00;101148.09;5015654;28;20101;-77
2023/02/16 11:13:30;;;;;;;0.40;0.40;;;;;;;10.38;100.00;101131.25;5015757;28;20123;-77
2023/02/16 11:16:12;;;;;;;0.50;0.50;;;;;;;10.27;100.00;101136.91;4999797;28;20040;-78
2023/02/16 11:18:45;;;;;;;0.50;0.50;;;;;;;10.15;100.00;101147.09;4999364;28;20081;-77
2023/02/16 11:21:12;;;;;;;0.50;0.50;;;;;;;10.15;100.00;101148.97;5000202;28;20061;-77
2023/02/16 11:23:39;;;;;;;0.50;0.50;;;;;;;10.04;100.00;101140.19;5000140;28;20482;-77
2023/02/16 11:26:28;;;;;;;0.50;0.50;;;;;;;10.07;100.00;101150.63;5015943;28;20109;-77
2023/02/16 11:29:25;;;;;;;0.40;0.40;;;;;;;10.07;100.00;101130.97;5015783;28;20088;-77
2023/02/16 11:31:57;;;;;;;0.50;0.50;;;;;;;10.07;100.00;101131.81;5015860;28;20487;-76
2023/02/16 11:34:29;;;;;;;0.40;0.40;;;;;;;10.07;100.00;101139.03;4999644;28;20034;-77
2023/02/16 11:37:29;;;;;;;0.40;0.40;;;;;;;9.97;100.00;101128.41;5015734;28;20038;-77
2023/02/16 11:40:06;;;;;;;0.50;0.50;;;;;;;10.17;100.00;101128.16;4986155;28;20132;-77
2023/02/16 11:42:42;;;;;;;0.50;0.50;;;;;;;10.17;100.00;101134.34;5015996;28;20042;-77
2023/02/16 11:45:34;;;;;;;0.40;0.40;;;;;;;9.99;100.00;101128.25;5015615;28;20409;-76
2023/02/16 11:48:12;;;;;;;0.50;0.50;;;;;;;9.89;100.00;101126.53;5015729;28;20030;-76
2023/02/16 11:50:53;;;;;;;0.40;0.40;;;;;;;9.89;100.00;101131.06;4999702;28;20107;-77
2023/02/16 11:53:25;;;;;;;0.40;0.40;;;;;;;9.85;100.00;101113.59;4983332;28;20069;-76
2023/02/16 11:56:11;;;;;;;0.40;0.40;;;;;;;9.87;100.00;101123.19;5015139;28;20464;-77
2023/02/16 11:58:38;;;;;;;0.50;0.50;;;;;;;9.87;100.00;101116.94;5015805;28;20087;-77
2023/02/16 12:01:31;;;;;;;0.40;0.40;;;;;;;9.85;100.00;101118.97;4982946;28;20125;-77
2023/02/16 12:04:19;;;;;;;0.40;0.40;;;;;;;9.83;100.00;101123.66;5016696;28;20038;-77
2023/02/16 12:06:53;;;;;;;0.50;0.50;;;;;;;9.85;100.00;101116.31;5015082;28;20084;-78
2023/02/16 12:09:31;;;;;;;0.50;0.50;;;;;;;9.89;100.00;101107.72;5015636;28;20038;-76
2023/02/16 12:12:22;;;;;;;0.40;0.40;;;;;;;9.93;100.00;101113.63;5015255;28;20416;-77
2023/02/16 12:15:01;;;;;;;0.40;0.40;;;;;;;10.08;100.00;101105.78;5015025;28;20045;-76
2023/02/16 12:17:39;;;;;;;0.50;0.50;;;;;;;10.04;100.00;101102.59;4999185;28;20132;-76
2023/02/16 12:20:05;;;;;;;0.50;0.50;;;;;;;10.04;100.00;101101.75;5014111;28;20065;-77
2023/02/16 12:22:40;;;;;;;0.50;0.50;;;;;;;10.04;100.00;101105.28;5015303;28;20030;-76